createdAt,value
2019-04-05T00:02:32.542Z,58.11
2019-04-05T00:05:05.633Z,58.25
2019-04-05T00:07:37.291Z,58.37
2019-04-05T00:10:14.462Z,58.49
2019-04-05T00:12:47.233Z,58.63
2019-04-05T00:15:20.842Z,57.74
2019-04-05T00:17:52.375Z,58.59
2019-04-05T00:20:25.048Z,58.41
2019-04-05T00:22:57.961Z,58.59
2019-04-05T00:25:29.491Z,58.47
2019-04-05T00:28:01.187Z,58.48
2019-04-05T00:30:32.678Z,58.09
2019-04-05T00:33:05.306Z,58.15
2019-04-05T00:35:37.986Z,58.04
2019-04-05T00:38:10.659Z,57.87
2019-04-05T00:40:43.341Z,58.13
2019-04-05T00:43:16.034Z,58.14
2019-04-05T00:45:48.388Z,58.25
2019-04-05T00:48:21.075Z,58.29
2019-04-05T00:50:55.467Z,58.57
2019-04-05T00:53:28.459Z,58.32
2019-04-05T00:56:01.270Z,58.29
2019-04-05T00:58:33.948Z,57.91
2019-04-05T01:01:06.628Z,58.21
2019-04-05T01:03:39.316Z,58.34
2019-04-05T01:06:10.756Z,58.08
2019-04-05T01:08:43.446Z,58.27
2019-04-05T01:11:14.974Z,58.08
2019-04-05T01:13:47.569Z,58.29
2019-04-05T01:16:20.249Z,58.24
2019-04-05T01:18:51.783Z,58.20
2019-04-05T01:21:24.381Z,58.26
2019-04-05T01:23:58.289Z,58.44
2019-04-05T01:26:31.885Z,58.63
2019-04-05T01:29:04.578Z,58.40
2019-04-05T01:31:36.027Z,58.31
2019-04-05T01:34:08.700Z,58.92
2019-04-05T01:36:42.301Z,58.96
2019-04-05T01:39:16.208Z,59.27
2019-04-05T01:41:48.889Z,59.04
2019-04-05T01:44:22.501Z,59.13
2019-04-05T01:46:55.172Z,59.31
2019-04-05T01:49:27.852Z,58.80
2019-04-05T01:52:00.530Z,59.46
2019-04-05T01:54:33.262Z,59.21
2019-04-05T01:57:04.682Z,59.00
2019-04-05T01:59:36.151Z,59.67
2019-04-05T02:02:09.721Z,60.03
2019-04-05T02:04:42.417Z,59.78
2019-04-05T02:07:13.848Z,60.38
2019-04-05T02:09:46.533Z,60.56
2019-04-05T02:12:19.209Z,60.67
2019-04-05T02:14:51.891Z,60.25
2019-04-05T02:17:24.573Z,60.04
2019-04-05T02:19:56.119Z,60.71
2019-04-05T02:22:29.620Z,60.62
2019-04-05T02:25:02.305Z,60.95
2019-04-05T02:27:36.825Z,60.67
2019-04-05T02:30:09.586Z,60.91
2019-04-05T02:32:42.185Z,61.59
2019-04-05T02:35:14.891Z,61.78
2019-04-05T02:37:47.648Z,61.86
2019-04-05T02:40:20.551Z,61.78
2019-04-05T02:42:53.210Z,62.20
2019-04-05T02:45:24.744Z,62.47
2019-04-05T02:48:01.521Z,65.44
2019-04-05T02:50:34.330Z,60.28
2019-04-05T02:53:08.401Z,52.41
2019-04-05T02:55:41.401Z,52.72
2019-04-05T02:58:14.225Z,53.06
2019-04-05T03:00:46.906Z,53.38
2019-04-05T03:03:19.568Z,53.81
2019-04-05T03:05:52.262Z,54.43
2019-04-05T03:08:24.932Z,54.98
2019-04-05T03:11:05.125Z,55.45
2019-04-05T03:13:39.115Z,55.90
2019-04-05T03:16:17.948Z,56.72
2019-04-05T03:18:53.651Z,57.21
2019-04-05T03:21:25.078Z,56.84
2019-04-05T03:23:56.774Z,57.40
2019-04-05T03:26:32.273Z,58.20
2019-04-05T03:29:07.112Z,58.69
2019-04-05T03:31:39.652Z,59.42
2019-04-05T03:34:12.321Z,59.56
2019-04-05T03:36:44.998Z,60.01
2019-04-05T03:39:17.676Z,61.74
2019-04-05T03:41:50.371Z,63.53
2019-04-05T03:44:23.110Z,62.25
2019-04-05T03:46:57.451Z,55.30
2019-04-05T03:49:29.641Z,54.12
2019-04-05T03:52:01.116Z,54.82
2019-04-05T03:54:33.015Z,55.44
2019-04-05T03:57:05.703Z,55.53
2019-04-05T03:59:38.192Z,56.19
2019-04-05T04:02:11.184Z,56.62
2019-04-05T04:04:43.867Z,57.37
2019-04-05T04:07:15.307Z,57.90
2019-04-05T04:09:46.833Z,58.41
2019-04-05T04:12:18.256Z,59.26
2019-04-05T04:14:49.686Z,59.69
2019-04-05T04:17:22.657Z,62.05
2019-04-05T04:19:56.261Z,65.12
2019-04-05T04:22:29.686Z,58.97
2019-04-05T04:25:01.014Z,53.37
2019-04-05T04:27:32.626Z,53.80
2019-04-05T04:30:06.475Z,54.76
2019-04-05T04:32:39.449Z,56.13
2019-04-05T04:35:12.032Z,56.88
2019-04-05T04:37:44.705Z,57.55
2019-04-05T04:40:17.393Z,58.28
2019-04-05T04:42:50.544Z,59.02
2019-04-05T04:45:23.061Z,59.13
2019-04-05T04:47:55.744Z,60.51
2019-04-05T04:50:28.430Z,61.01
2019-04-05T04:52:59.866Z,61.36
2019-04-05T04:55:33.485Z,61.72
2019-04-05T04:58:04.996Z,61.65
2019-04-05T05:00:38.841Z,63.96
2019-04-05T05:03:11.506Z,61.94
2019-04-05T05:05:44.201Z,53.53
2019-04-05T05:08:16.899Z,51.83
2019-04-05T05:10:48.388Z,52.18
2019-04-05T05:13:19.874Z,52.89
2019-04-05T05:15:51.323Z,53.56
2019-04-05T05:18:23.457Z,54.09
2019-04-05T05:20:56.285Z,54.69
2019-04-05T05:23:27.729Z,55.12
2019-04-05T05:26:00.415Z,55.25
2019-04-05T05:28:33.087Z,55.86
2019-04-05T05:31:05.782Z,55.95
2019-04-05T05:33:37.221Z,56.38
2019-04-05T05:36:10.573Z,56.92
2019-04-05T05:38:43.510Z,56.07
2019-04-05T05:41:16.185Z,56.83
2019-04-05T05:43:49.334Z,54.94
2019-04-05T05:46:22.173Z,52.48
2019-04-05T05:48:53.608Z,51.20
2019-04-05T05:51:26.285Z,49.63
2019-04-05T05:53:58.968Z,48.03
2019-04-05T05:56:31.653Z,46.38
2019-04-05T05:59:05.256Z,42.72
2019-04-05T06:01:37.927Z,42.24
2019-04-05T06:04:12.781Z,40.24
2019-04-05T06:06:43.941Z,41.56
2019-04-05T06:09:15.672Z,40.41
2019-04-05T06:11:48.370Z,40.39
2019-04-05T06:14:21.434Z,41.13
2019-04-05T06:16:54.950Z,41.26
2019-04-05T06:19:26.451Z,42.45
2019-04-05T06:21:59.089Z,41.68
2019-04-05T06:24:30.510Z,41.21
2019-04-05T06:27:03.210Z,41.10
2019-04-05T06:29:35.433Z,41.85
2019-04-05T06:32:20.480Z,42.63
2019-04-05T06:34:55.067Z,43.66
2019-04-05T06:37:26.573Z,44.32
2019-04-05T06:40:05.305Z,44.38
2019-04-05T06:42:42.061Z,45.28
2019-04-05T06:45:13.494Z,45.10
2019-04-05T06:47:44.978Z,45.82
2019-04-05T06:50:17.612Z,45.82
2019-04-05T06:52:50.023Z,46.40
2019-04-05T06:55:22.972Z,46.65
2019-04-05T06:57:54.783Z,46.80
2019-04-05T07:00:30.643Z,46.91
2019-04-05T07:03:03.509Z,46.92
2019-04-05T07:05:36.828Z,46.87
2019-04-05T07:08:13.287Z,47.19
2019-04-05T07:10:50.497Z,47.26
2019-04-05T07:13:23.677Z,47.35
2019-04-05T07:15:59.987Z,47.45
2019-04-05T07:18:37.449Z,46.53
2019-04-05T07:21:13.524Z,45.82
2019-04-05T07:23:47.064Z,44.44
2019-04-05T07:26:20.838Z,43.12
2019-04-05T07:28:52.998Z,42.61
2019-04-05T07:31:24.441Z,39.71
2019-04-05T07:33:57.229Z,36.86
2019-04-05T07:36:29.796Z,36.31
2019-04-05T07:39:02.566Z,33.41
2019-04-05T07:41:35.172Z,31.92
2019-04-05T07:44:06.998Z,30.41
2019-04-05T07:46:39.902Z,28.99
2019-04-05T07:49:12.626Z,29.40
2019-04-05T07:51:44.071Z,28.78
2019-04-05T07:54:15.503Z,27.42
2019-04-05T07:56:46.939Z,27.64
2019-04-05T07:59:21.025Z,26.78
2019-04-05T08:01:53.836Z,25.57
2019-04-05T08:04:27.760Z,25.16
2019-04-05T08:07:01.207Z,25.20
2019-04-05T08:09:33.762Z,25.56
2019-04-05T08:12:05.929Z,25.12
2019-04-05T08:14:45.562Z,24.87
2019-04-05T08:17:13.911Z,24.86
2019-04-05T08:19:47.527Z,25.28
2019-04-05T08:22:22.789Z,24.67
2019-04-05T08:24:54.470Z,24.40
2019-04-05T08:27:29.795Z,24.57
2019-04-05T08:30:08.456Z,23.71
2019-04-05T08:32:45.591Z,24.15
2019-04-05T08:35:17.129Z,24.04
2019-04-05T08:37:53.083Z,24.80
2019-04-05T08:40:27.079Z,25.54
2019-04-05T08:42:58.530Z,26.54
2019-04-05T08:45:31.228Z,26.95
2019-04-05T08:48:02.667Z,27.48
2019-04-05T08:50:34.268Z,27.86
2019-04-05T08:53:07.418Z,27.93
2019-04-05T08:55:38.857Z,28.56
2019-04-05T08:58:11.543Z,28.72
2019-04-05T09:00:42.997Z,29.19
2019-04-05T09:03:16.732Z,30.06
2019-04-05T09:05:50.502Z,30.06
2019-04-05T09:08:21.951Z,29.57
2019-04-05T09:10:56.165Z,29.97
2019-04-05T09:13:29.771Z,30.19
2019-04-05T09:16:01.232Z,30.17
2019-04-05T09:18:37.806Z,30.72
2019-04-05T09:21:17.903Z,30.76
2019-04-05T09:23:51.872Z,31.10
2019-04-05T09:26:25.763Z,31.71
2019-04-05T09:28:59.136Z,31.46
2019-04-05T09:31:31.740Z,31.49
2019-04-05T09:34:05.398Z,31.33
2019-04-05T09:36:38.024Z,31.67
2019-04-05T09:39:15.664Z,31.73
2019-04-05T09:41:51.428Z,31.82
2019-04-05T09:44:23.851Z,31.35
2019-04-05T09:47:07.980Z,30.15
2019-04-05T09:49:40.481Z,30.96
2019-04-05T09:52:12.867Z,30.68
2019-04-05T09:54:44.308Z,30.01
2019-04-05T09:57:15.755Z,29.83
2019-04-05T09:59:47.197Z,30.26
2019-04-05T10:02:19.884Z,30.39
2019-04-05T10:04:51.335Z,31.00
2019-04-05T10:07:22.788Z,30.77
2019-04-05T10:09:55.171Z,30.19
2019-04-05T10:12:26.617Z,29.75
2019-04-05T10:14:58.065Z,30.14
2019-04-05T10:17:29.524Z,30.48
2019-04-05T10:20:00.969Z,30.10
2019-04-05T10:22:32.427Z,30.17
2019-04-05T10:25:06.240Z,30.65
2019-04-05T10:27:37.767Z,30.48
2019-04-05T10:30:12.719Z,30.32
2019-04-05T10:32:46.064Z,30.41
2019-04-05T10:35:18.884Z,30.59
2019-04-05T10:37:50.346Z,30.46
2019-04-05T10:40:21.808Z,30.08
2019-04-05T10:42:53.238Z,30.67
2019-04-05T10:45:28.228Z,30.45
2019-04-05T10:47:59.895Z,31.07
2019-04-05T10:50:31.319Z,30.33
2019-04-05T10:53:02.735Z,30.59
2019-04-05T10:55:34.220Z,29.97
2019-04-05T10:58:06.398Z,30.48
2019-04-05T11:00:44.840Z,30.71
2019-04-05T11:03:15.604Z,30.05
2019-04-05T11:05:49.176Z,30.13
2019-04-05T11:08:20.354Z,30.40
2019-04-05T11:10:51.823Z,30.54
2019-04-05T11:13:24.538Z,30.70
2019-04-05T11:15:55.954Z,30.67
2019-04-05T11:18:27.393Z,30.06
2019-04-05T11:20:58.850Z,29.66
2019-04-05T11:23:31.533Z,30.02
2019-04-05T11:26:04.067Z,30.62
2019-04-05T11:28:36.872Z,30.47
2019-04-05T11:31:09.550Z,31.54
2019-04-05T11:33:41.088Z,30.87
2019-04-05T11:36:14.399Z,31.13
2019-04-05T11:38:49.892Z,31.52
2019-04-05T11:41:29.052Z,31.53
2019-04-05T11:47:05.284Z,31.72
2019-04-05T11:49:38.792Z,32.37
2019-04-05T11:52:12.819Z,31.66
2019-04-05T11:54:45.943Z,31.65
2019-04-05T11:57:17.548Z,31.53
2019-04-05T11:59:50.230Z,32.05
2019-04-05T12:02:27.247Z,31.83
2019-04-05T12:05:00.576Z,32.30
2019-04-05T12:07:31.978Z,31.54
2019-04-05T12:10:03.595Z,31.81
2019-04-05T12:12:37.306Z,31.37
2019-04-05T12:15:11.529Z,31.91
2019-04-05T12:17:42.960Z,31.13
2019-04-05T12:20:15.342Z,30.89
2019-04-05T12:22:46.780Z,31.00
2019-04-05T12:25:18.254Z,30.75
2019-04-05T12:28:07.025Z,30.21
2019-04-05T12:30:46.126Z,30.27
2019-04-05T12:33:20.329Z,30.15
2019-04-05T12:35:56.667Z,29.57
2019-04-05T12:38:32.658Z,29.92
2019-04-05T12:41:05.758Z,30.10
2019-04-05T12:43:37.192Z,28.94
2019-04-05T12:46:10.383Z,29.45
2019-04-05T12:48:45.471Z,28.93
2019-04-05T12:51:17.357Z,29.01
2019-04-05T12:53:48.880Z,29.37
2019-04-05T12:56:20.559Z,29.10
2019-04-05T12:58:53.642Z,28.71
2019-04-05T13:01:26.534Z,28.80
2019-04-05T13:03:59.175Z,28.20
2019-04-05T13:06:31.604Z,27.91
2019-04-05T13:09:05.426Z,28.18
2019-04-05T13:11:36.644Z,28.81
2019-04-05T13:14:15.249Z,28.97
2019-04-05T13:16:49.672Z,28.85
2019-04-05T13:19:22.956Z,29.57
2019-04-05T13:21:54.406Z,29.44
2019-04-05T13:24:25.961Z,29.33
2019-04-05T13:27:02.145Z,29.85
2019-04-05T13:29:37.907Z,29.80
2019-04-05T13:32:10.974Z,29.35
2019-04-05T13:34:42.470Z,29.57
2019-04-05T13:37:20.582Z,29.25
2019-04-05T13:39:49.636Z,28.95
2019-04-05T13:42:22.392Z,28.31
2019-04-05T13:44:54.437Z,28.55
2019-04-05T13:47:25.869Z,28.60
2019-04-05T13:49:57.764Z,29.20
2019-04-05T13:52:29.349Z,29.02
2019-04-05T13:55:02.047Z,29.08
2019-04-05T13:57:41.339Z,28.81
2019-04-05T14:00:17.551Z,29.40
2019-04-05T14:02:50.111Z,30.00
2019-04-05T14:05:22.797Z,30.37
2019-04-05T14:08:09.076Z,30.76
2019-04-05T14:10:27.844Z,30.45
2019-04-05T14:13:00.891Z,31.12
2019-04-05T14:15:34.205Z,31.23
2019-04-05T14:18:05.759Z,31.76
2019-04-05T14:20:37.120Z,31.77
2019-04-05T14:23:08.577Z,31.73
2019-04-05T14:25:41.220Z,31.95
2019-04-05T14:28:12.651Z,32.36
2019-04-05T14:30:44.111Z,32.15
2019-04-05T14:33:15.567Z,31.54
2019-04-05T14:35:47.094Z,31.77
2019-04-05T14:38:19.693Z,32.07
2019-04-05T14:40:51.148Z,31.87
2019-04-05T14:43:22.596Z,32.00
2019-04-05T14:45:54.043Z,31.87
2019-04-05T14:48:27.725Z,31.73
2019-04-05T14:51:01.254Z,31.33
2019-04-05T14:53:32.818Z,31.61
2019-04-05T14:56:09.606Z,31.95
2019-04-05T14:58:45.164Z,32.54
2019-04-05T15:01:18.022Z,32.34
2019-04-05T15:03:49.719Z,32.07
2019-04-05T15:06:21.387Z,32.01
2019-04-05T15:08:54.349Z,31.74
2019-04-05T15:11:32.392Z,31.33
2019-04-05T15:14:05.332Z,31.90
2019-04-05T15:16:36.985Z,31.87
2019-04-05T15:19:08.430Z,32.02
2019-04-05T15:21:39.920Z,31.92
2019-04-05T15:24:15.957Z,32.15
2019-04-05T15:26:47.104Z,31.87
2019-04-05T15:29:18.534Z,31.99
2019-04-05T15:31:56.121Z,32.22
2019-04-05T15:34:29.264Z,32.16
2019-04-05T15:37:02.306Z,32.17
2019-04-05T15:39:38.189Z,32.15
2019-04-05T15:42:09.636Z,32.26
2019-04-05T15:44:41.068Z,32.30
2019-04-05T15:47:13.733Z,32.65
2019-04-05T15:49:46.765Z,32.80
2019-04-05T15:52:19.463Z,33.74
2019-04-05T15:54:52.383Z,34.45
2019-04-05T15:57:28.480Z,35.01
2019-04-05T16:00:03.846Z,35.55
2019-04-05T16:02:35.979Z,35.67
2019-04-05T16:05:10.176Z,35.66
2019-04-05T16:07:41.635Z,36.00
2019-04-05T16:10:14.290Z,38.15
2019-04-05T16:12:45.788Z,43.13
2019-04-05T16:15:17.222Z,45.21
2019-04-05T16:17:48.660Z,46.99
2019-04-05T16:20:20.369Z,47.46
2019-04-05T16:22:51.935Z,50.51
2019-04-05T16:25:23.376Z,46.14
2019-04-05T16:27:57.647Z,44.95
2019-04-05T16:30:31.826Z,44.70
2019-04-05T16:33:03.331Z,46.09
2019-04-05T16:35:35.178Z,45.03
2019-04-05T16:38:06.704Z,45.25
2019-04-05T16:40:39.477Z,46.34
2019-04-05T16:43:12.237Z,45.07
2019-04-05T16:45:43.906Z,44.42
2019-04-05T16:48:16.630Z,43.92
2019-04-05T16:50:49.824Z,44.28
2019-04-05T16:53:24.053Z,44.25
2019-04-05T16:55:57.135Z,44.45
2019-04-05T16:58:28.508Z,43.34
2019-04-05T17:00:59.961Z,44.27
2019-04-05T17:03:34.158Z,44.94
2019-04-05T17:06:05.624Z,44.79
2019-04-05T17:08:38.281Z,44.79
2019-04-05T17:11:10.959Z,44.69
2019-04-05T17:13:42.420Z,45.12
2019-04-05T17:16:13.877Z,45.17
2019-04-05T17:18:46.894Z,45.60
2019-04-05T17:21:19.873Z,46.05
2019-04-05T17:23:51.620Z,46.31
2019-04-05T17:26:23.081Z,46.71
2019-04-05T17:28:55.731Z,47.30
2019-04-05T17:31:28.745Z,47.64
2019-04-05T17:34:01.530Z,48.53
2019-04-05T17:36:36.277Z,48.27
2019-04-05T17:39:10.244Z,48.79
2019-04-05T17:41:43.187Z,49.58
2019-04-05T17:44:16.755Z,49.86
2019-04-05T17:46:48.199Z,49.99
2019-04-05T17:49:19.674Z,49.95
2019-04-05T17:51:53.956Z,49.87
2019-04-05T17:54:25.338Z,50.83
2019-04-05T17:56:59.608Z,51.88
2019-04-05T17:59:32.798Z,51.48
2019-04-05T18:02:04.321Z,51.27
2019-04-05T18:04:37.290Z,51.79
2019-04-05T18:07:09.925Z,51.87
2019-04-05T18:09:46.722Z,51.67
2019-04-05T18:12:20.904Z,51.88
2019-04-05T18:14:53.832Z,52.05
2019-04-05T18:17:28.776Z,51.90
2019-04-05T18:20:01.021Z,52.21
2019-04-05T18:22:32.467Z,51.86
2019-04-05T18:25:07.967Z,52.17
2019-04-05T18:27:40.620Z,52.46
2019-04-05T18:30:14.042Z,52.55
2019-04-05T18:32:45.718Z,52.35
2019-04-05T18:35:17.086Z,52.62
2019-04-05T18:37:48.559Z,51.75
2019-04-05T18:40:20.046Z,51.61
2019-04-05T18:42:52.986Z,52.11
2019-04-05T18:45:24.777Z,52.09
2019-04-05T18:48:00.691Z,51.86
2019-04-05T18:50:32.342Z,51.90
2019-04-05T18:53:03.685Z,51.67
2019-04-05T18:55:46.468Z,51.51
2019-04-05T18:58:17.977Z,51.45
2019-04-05T19:00:49.422Z,51.41
2019-04-05T19:03:20.907Z,51.63
2019-04-05T19:05:55.436Z,51.56
2019-04-05T19:08:39.117Z,51.12
2019-04-05T19:11:01.662Z,51.33
2019-04-05T19:13:34.380Z,51.67
2019-04-05T19:16:05.832Z,51.45
2019-04-05T19:18:38.976Z,51.15
2019-04-05T19:21:12.458Z,51.43
2019-04-05T19:23:50.730Z,51.33
2019-04-05T19:26:18.437Z,51.32
2019-04-05T19:28:51.029Z,51.05
2019-04-05T19:49:27.567Z,51.17
2019-04-05T19:52:00.214Z,51.20
2019-04-05T19:54:34.413Z,50.97
2019-04-05T19:57:08.067Z,51.02
2019-04-05T19:59:45.601Z,51.08
2019-04-05T20:02:18.308Z,51.18
2019-04-05T20:04:49.795Z,51.21
2019-04-05T20:07:25.999Z,51.07
2019-04-05T20:10:00.143Z,51.36
2019-04-05T20:12:33.947Z,51.61
2019-04-05T20:15:11.273Z,51.51
2019-04-05T20:17:43.609Z,51.35
2019-04-05T20:20:26.027Z,52.10
2019-04-05T20:23:08.688Z,51.88
2019-04-05T20:25:42.650Z,51.83
2019-04-05T20:28:14.305Z,52.06
2019-04-05T20:30:51.708Z,51.71
2019-04-05T20:33:25.411Z,52.18
2019-04-05T20:36:07.488Z,52.04
2019-04-05T20:38:42.023Z,52.48
2019-04-05T20:41:13.678Z,52.49
2019-04-05T20:43:48.998Z,52.09
2019-04-05T20:46:22.138Z,52.93
2019-04-05T20:48:56.922Z,52.64
2019-04-05T20:51:30.418Z,53.33
2019-04-05T20:54:07.059Z,53.09
2019-04-05T20:56:41.568Z,52.98
2019-04-05T20:59:16.117Z,53.04
2019-04-05T21:01:52.056Z,53.53
2019-04-05T21:04:29.443Z,53.40
2019-04-05T21:07:06.710Z,53.93
2019-04-05T21:09:42.993Z,53.78
2019-04-05T21:12:15.945Z,53.53
2019-04-05T21:14:49.082Z,54.63
2019-04-05T21:17:32.746Z,54.25
2019-04-05T21:20:10.294Z,54.68
2019-04-05T21:22:42.928Z,54.74
2019-04-05T21:25:16.397Z,53.98
2019-04-05T21:27:48.906Z,54.80
2019-04-05T21:30:20.371Z,55.00
2019-04-05T21:32:51.808Z,55.08
2019-04-05T21:35:23.258Z,55.33
2019-04-05T21:37:54.723Z,55.41
2019-04-05T21:40:27.389Z,55.87
2019-04-05T21:42:58.850Z,54.55
2019-04-05T21:45:30.304Z,55.40
2019-04-05T21:48:01.737Z,55.58
2019-04-05T21:50:35.064Z,56.16
2019-04-05T21:53:06.519Z,56.44
2019-04-05T21:55:37.974Z,56.56
2019-04-05T21:58:12.469Z,56.13
2019-04-05T22:00:46.482Z,57.14
2019-04-05T22:03:22.489Z,56.74
2019-04-05T22:05:55.123Z,57.17
2019-04-05T22:08:27.523Z,57.13
2019-04-05T22:11:00.188Z,57.81
2019-04-05T22:13:31.630Z,57.75
2019-04-05T22:16:03.069Z,58.81
2019-04-05T22:18:36.970Z,58.44
2019-04-05T22:21:10.066Z,58.24
2019-04-05T22:23:41.711Z,58.38
2019-04-05T22:26:13.272Z,58.42
2019-04-05T22:28:45.851Z,59.28
2019-04-05T22:31:18.538Z,58.50
2019-04-05T22:33:49.979Z,59.16
2019-04-05T22:36:22.659Z,59.91
2019-04-05T22:38:55.035Z,59.48
2019-04-05T22:41:27.246Z,60.02
2019-04-05T22:44:00.087Z,60.07
2019-04-05T22:46:32.889Z,60.09
2019-04-05T22:49:04.527Z,60.55
2019-04-05T22:51:36.908Z,60.93
2019-04-05T22:54:08.350Z,60.42
2019-04-05T22:56:42.262Z,61.01
2019-04-05T22:59:13.734Z,61.24
2019-04-05T23:01:47.317Z,61.46
2019-04-05T23:04:20.301Z,61.31
2019-04-05T23:06:52.986Z,61.70
2019-04-05T23:09:24.418Z,62.06
2019-04-05T23:11:57.405Z,61.67
2019-04-05T23:14:30.096Z,61.13
2019-04-05T23:17:01.552Z,61.46
2019-04-05T23:19:34.533Z,62.08
2019-04-05T23:22:05.988Z,65.19
2019-04-05T23:24:37.428Z,61.26
2019-04-05T23:27:10.137Z,56.28
2019-04-05T23:29:41.566Z,51.57
2019-04-05T23:32:13.019Z,50.32
2019-04-05T23:34:44.491Z,51.20
2019-04-05T23:37:15.938Z,51.59
2019-04-05T23:39:47.425Z,52.25
2019-04-05T23:42:22.047Z,52.58
2019-04-05T23:44:54.931Z,53.43
2019-04-05T23:47:26.690Z,54.12
2019-04-05T23:49:59.328Z,55.23
2019-04-05T23:52:32.327Z,55.26
2019-04-05T23:55:04.230Z,56.28
2019-04-05T23:57:37.981Z,56.77
